createdAt,value
2022-10-05T00:01:27.471Z,99508.13
2022-10-05T00:04:01.177Z,99501.72
2022-10-05T00:06:30.704Z,99507.28
2022-10-05T00:08:59.078Z,99508.34
2022-10-05T00:11:27.187Z,99504.94
2022-10-05T00:13:55.685Z,99498.94
2022-10-05T00:16:23.870Z,99510.63
2022-10-05T00:18:53.528Z,99502.16
2022-10-05T00:21:25.019Z,99496.78
2022-10-05T00:23:54.014Z,99497.91
2022-10-05T00:26:23.928Z,99496.78
2022-10-05T00:28:52.755Z,99495.13
2022-10-05T00:31:22.299Z,99495.13
2022-10-05T00:33:50.741Z,99489.56
2022-10-05T00:36:19.201Z,99484.84
2022-10-05T00:38:48.887Z,99495.13
2022-10-05T00:41:22.969Z,99495.75
2022-10-05T00:44:22.140Z,99502.94
2022-10-05T00:46:56.129Z,99507.47
2022-10-05T00:49:37.523Z,99496.34
2022-10-05T00:52:12.391Z,99503.56
2022-10-05T00:54:45.512Z,99504.19
2022-10-05T00:57:23.787Z,99511.41
2022-10-05T01:00:05.269Z,99515.59
2022-10-05T01:02:41.087Z,99509.22
2022-10-05T01:05:13.662Z,99504.19
2022-10-05T01:07:46.734Z,99512.00
2022-10-05T01:10:23.108Z,99509.13
2022-10-05T01:12:59.412Z,99517.19
2022-10-05T01:15:32.640Z,99506.88
2022-10-05T01:18:08.316Z,99504.19
2022-10-05T01:20:42.690Z,99505.84
2022-10-05T01:23:38.481Z,99518.09
2022-10-05T01:26:21.305Z,99519.22
2022-10-05T01:28:54.992Z,99523.94
2022-10-05T01:31:27.107Z,99514.06
2022-10-05T01:34:11.424Z,99510.78
2022-10-05T01:36:45.769Z,99518.31
2022-10-05T01:39:20.087Z,99509.75
2022-10-05T01:41:52.075Z,99522.53
2022-10-05T01:44:25.800Z,99522.25
2022-10-05T01:46:59.099Z,99518.69
2022-10-05T01:49:38.958Z,99516.44
2022-10-05T01:52:25.963Z,99514.47
2022-10-05T01:55:02.371Z,99518.59
2022-10-05T01:57:40.918Z,99521.09
2022-10-05T02:00:12.032Z,99517.78
2022-10-05T02:02:42.676Z,99522.53
2022-10-05T02:05:14.174Z,99520.34
2022-10-05T02:07:45.880Z,99522.88
2022-10-05T02:10:20.530Z,99518.75
2022-10-05T02:12:51.339Z,99516.50
2022-10-05T02:15:24.249Z,99517.03
2022-10-05T02:17:56.810Z,99508.09
2022-10-05T02:20:27.421Z,99518.00
2022-10-05T02:22:58.840Z,99516.25
2022-10-05T02:25:30.528Z,99511.81
2022-10-05T02:28:01.602Z,99524.47
2022-10-05T02:30:33.158Z,99517.09
2022-10-05T02:33:03.163Z,99516.91
2022-10-05T02:35:31.327Z,99523.28
2022-10-05T02:38:10.527Z,99515.03
2022-10-05T02:40:46.356Z,99517.88
2022-10-05T02:43:22.591Z,99528.19
2022-10-05T02:45:57.352Z,99525.09
2022-10-05T02:48:33.082Z,99521.28
2022-10-05T02:51:08.182Z,99525.69
2022-10-05T02:53:40.434Z,99529.91
2022-10-05T02:56:15.013Z,99530.75
2022-10-05T02:58:48.781Z,99522.31
2022-10-05T03:01:23.144Z,99531.56
2022-10-05T03:03:59.500Z,99534.34
2022-10-05T03:06:32.186Z,99526.31
2022-10-05T03:09:03.317Z,99539.69
2022-10-05T03:11:40.129Z,99529.16
2022-10-05T03:14:12.784Z,99527.75
2022-10-05T03:16:49.244Z,99529.16
2022-10-05T03:19:28.112Z,99531.66
2022-10-05T03:22:00.723Z,99525.41
2022-10-05T03:24:45.615Z,99533.00
2022-10-05T03:27:23.391Z,99537.63
2022-10-05T03:29:57.505Z,99543.59
2022-10-05T03:32:35.023Z,99544.44
2022-10-05T03:35:08.578Z,99544.81
2022-10-05T03:37:44.823Z,99549.38
2022-10-05T03:40:23.594Z,99542.78
2022-10-05T03:42:56.953Z,99551.41
2022-10-05T03:45:25.732Z,99545.56
2022-10-05T03:48:01.693Z,99549.16
2022-10-05T03:50:36.167Z,99546.88
2022-10-05T03:53:07.411Z,99546.88
2022-10-05T03:55:40.550Z,99544.03
2022-10-05T03:58:14.566Z,99548.06
2022-10-05T04:00:45.333Z,99552.09
2022-10-05T04:03:20.383Z,99554.94
2022-10-05T04:05:52.017Z,99549.16
2022-10-05T04:08:24.433Z,99553.06
2022-10-05T04:10:54.298Z,99558.63
2022-10-05T04:13:26.335Z,99552.78
2022-10-05T04:15:59.222Z,99563.22
2022-10-05T04:18:32.492Z,99558.00
2022-10-05T04:21:03.874Z,99549.16
2022-10-05T04:23:43.978Z,99565.22
2022-10-05T04:26:14.820Z,99564.19
2022-10-05T04:28:48.667Z,99561.94
2022-10-05T04:31:26.146Z,99566.50
2022-10-05T04:34:04.379Z,99568.38
2022-10-05T04:36:35.222Z,99561.19
2022-10-05T04:39:08.275Z,99562.59
2022-10-05T04:41:50.384Z,99566.28
2022-10-05T04:44:38.728Z,99571.84
2022-10-05T04:47:25.032Z,99572.66
2022-10-05T04:50:08.303Z,99579.69
2022-10-05T04:52:41.347Z,99561.97
2022-10-05T04:55:15.764Z,99568.00
2022-10-05T04:57:51.142Z,99572.34
2022-10-05T05:00:24.416Z,99573.72
2022-10-05T05:03:17.245Z,99573.19
2022-10-05T05:06:15.351Z,99572.28
2022-10-05T05:08:51.642Z,99576.34
2022-10-05T05:11:28.482Z,99576.94
2022-10-05T05:14:31.963Z,99582.06
2022-10-05T05:17:13.365Z,99580.03
2022-10-05T05:19:47.161Z,99572.41
2022-10-05T05:22:25.146Z,99576.94
2022-10-05T05:25:05.558Z,99582.94
2022-10-05T05:27:40.647Z,99582.34
2022-10-05T05:30:16.705Z,99582.72
2022-10-05T05:32:51.522Z,99583.75
2022-10-05T05:35:32.524Z,99580.06
2022-10-05T05:38:11.571Z,99584.94
2022-10-05T05:40:44.802Z,99573.44
2022-10-05T05:43:23.895Z,99583.13
2022-10-05T05:45:58.845Z,99585.38
2022-10-05T05:48:32.128Z,99586.94
2022-10-05T05:51:04.355Z,99586.25
2022-10-05T05:53:38.468Z,99583.38
2022-10-05T05:56:10.972Z,99585.47
2022-10-05T05:58:50.171Z,99581.56
2022-10-05T06:01:32.742Z,99579.28
2022-10-05T06:04:04.010Z,99588.16
2022-10-05T06:06:33.814Z,99579.50
2022-10-05T06:09:07.105Z,99589.38
2022-10-05T06:11:37.218Z,99595.59
2022-10-05T06:14:07.003Z,99588.97
2022-10-05T06:16:38.234Z,99598.06
2022-10-05T06:19:11.745Z,99591.06
2022-10-05T06:21:43.687Z,99593.34
2022-10-05T06:24:17.032Z,99591.69
2022-10-05T06:27:00.100Z,99589.53
2022-10-05T06:29:35.735Z,99593.13
2022-10-05T06:32:07.728Z,99604.09
2022-10-05T06:34:48.154Z,99609.44
2022-10-05T06:37:22.187Z,99605.44
2022-10-05T06:40:01.056Z,99600.25
2022-10-05T06:42:45.781Z,99607.81
2022-10-05T06:45:21.920Z,99609.91
2022-10-05T06:47:53.564Z,99610.06
2022-10-05T06:50:31.434Z,99612.56
2022-10-05T06:53:10.288Z,99612.97
2022-10-05T06:55:47.669Z,99620.81
2022-10-05T06:58:28.031Z,99624.97
2022-10-05T07:01:00.820Z,99628.47
2022-10-05T07:03:35.184Z,99618.34
2022-10-05T07:06:08.418Z,99627.84
2022-10-05T07:08:46.843Z,99628.75
2022-10-05T07:11:28.220Z,99637.09
2022-10-05T07:14:12.651Z,99642.41
2022-10-05T07:16:49.133Z,99635.06
2022-10-05T07:19:27.124Z,99644.13
2022-10-05T07:22:10.841Z,99645.47
2022-10-05T07:24:43.126Z,99653.09
2022-10-05T07:27:17.135Z,99653.91
2022-10-05T07:29:51.390Z,99651.88
2022-10-05T07:32:34.958Z,99660.59
2022-10-05T07:35:06.194Z,99669.38
2022-10-05T07:37:54.919Z,99667.56
2022-10-05T07:40:27.264Z,99662.66
2022-10-05T07:43:09.899Z,99667.63
2022-10-05T07:45:43.478Z,99673.44
2022-10-05T07:48:17.413Z,99673.78
2022-10-05T07:50:54.557Z,99677.81
2022-10-05T07:53:28.343Z,99681.94
2022-10-05T07:56:00.833Z,99678.22
2022-10-05T07:58:34.277Z,99676.56
2022-10-05T08:01:04.900Z,99694.94
2022-10-05T08:03:41.198Z,99691.63
2022-10-05T08:06:15.170Z,99687.28
2022-10-05T08:08:49.600Z,99696.97
2022-10-05T08:11:21.891Z,99703.81
2022-10-05T08:13:55.448Z,99692.34
2022-10-05T08:16:26.511Z,99705.56
2022-10-05T08:18:58.349Z,99713.91
2022-10-05T08:21:31.916Z,99703.00
2022-10-05T08:24:04.630Z,99711.88
2022-10-05T08:26:38.513Z,99709.72
2022-10-05T08:29:14.614Z,99706.63
2022-10-05T08:31:46.002Z,99704.88
2022-10-05T08:34:23.451Z,99714.75
2022-10-05T08:37:00.704Z,99708.38
2022-10-05T08:39:32.081Z,99712.31
2022-10-05T08:42:30.116Z,99714.56
2022-10-05T08:45:39.173Z,99717.28
2022-10-05T08:48:36.096Z,99719.34
2022-10-05T08:51:30.321Z,99714.38
2022-10-05T08:54:37.054Z,99723.88
2022-10-05T08:57:24.459Z,99721.22
2022-10-05T09:00:05.672Z,99736.06
2022-10-05T09:02:56.470Z,99727.28
2022-10-05T09:05:52.276Z,99731.72
2022-10-05T09:08:43.767Z,99732.75
2022-10-05T09:11:14.847Z,99731.81
2022-10-05T09:14:30.923Z,99734.22
2022-10-05T09:17:09.251Z,99729.63
2022-10-05T09:20:08.373Z,99736.47
2022-10-05T09:22:40.249Z,99737.94
2022-10-05T09:25:28.814Z,99747.22
2022-10-05T09:27:58.685Z,99739.75
2022-10-05T09:30:35.328Z,99745.25
2022-10-05T09:33:54.894Z,99753.84
2022-10-05T09:37:08.458Z,99761.28
2022-10-05T09:40:11.412Z,99766.25
2022-10-05T09:42:48.982Z,99751.59
2022-10-05T09:45:33.857Z,99761.66
2022-10-05T09:48:44.640Z,99768.06
2022-10-05T09:51:39.100Z,99766.31
2022-10-05T09:54:46.324Z,99764.13
2022-10-05T09:57:32.614Z,99759.19
2022-10-05T10:00:37.270Z,99761.69
2022-10-05T10:03:19.821Z,99763.75
2022-10-05T10:06:17.176Z,99760.25
2022-10-05T10:08:54.122Z,99758.75
2022-10-05T10:11:27.726Z,99768.38
2022-10-05T10:14:16.854Z,99764.44
2022-10-05T10:17:17.541Z,99766.91
2022-10-05T10:20:03.317Z,99759.59
2022-10-05T10:23:08.586Z,99781.19
2022-10-05T10:26:23.427Z,99787.31
2022-10-05T10:29:13.574Z,99787.72
2022-10-05T10:32:04.713Z,99781.63
2022-10-05T10:35:04.169Z,99785.25
2022-10-05T10:37:41.101Z,99779.03
2022-10-05T10:40:27.209Z,99785.16
2022-10-05T10:43:10.607Z,99795.22
2022-10-05T10:45:48.236Z,99787.75
2022-10-05T10:48:49.786Z,99803.63
2022-10-05T10:51:20.510Z,99806.03
2022-10-05T10:54:26.263Z,99815.38
2022-10-05T10:57:06.811Z,99813.09
2022-10-05T11:00:15.833Z,99821.28
2022-10-05T11:03:13.769Z,99825.28
2022-10-05T11:06:23.767Z,99825.91
2022-10-05T11:09:04.715Z,99830.34
2022-10-05T11:12:15.744Z,99838.03
2022-10-05T11:14:57.161Z,99825.03
2022-10-05T11:17:33.541Z,99831.47
2022-10-05T11:20:26.650Z,99831.56
2022-10-05T11:23:10.837Z,99825.53
2022-10-05T11:26:01.624Z,99831.94
2022-10-05T11:28:54.858Z,99838.53
2022-10-05T11:31:39.222Z,99838.53
2022-10-05T11:34:35.512Z,99834.44
2022-10-05T11:37:29.228Z,99845.75
2022-10-05T11:40:14.910Z,99854.56
2022-10-05T11:43:10.391Z,99849.50
2022-10-05T11:45:49.438Z,99860.38
2022-10-05T11:48:29.903Z,99846.19
2022-10-05T11:51:22.955Z,99861.19
2022-10-05T11:53:58.911Z,99867.19
2022-10-05T11:59:12.599Z,99868.06
2022-10-05T12:01:45.640Z,99861.78
2022-10-05T12:04:18.403Z,99858.78
2022-10-05T12:06:58.235Z,99858.78
2022-10-05T12:10:01.647Z,99864.75
2022-10-05T12:12:36.762Z,99867.56
2022-10-05T12:15:18.636Z,99872.50
2022-10-05T12:17:51.526Z,99877.81
2022-10-05T12:20:22.412Z,99882.25
2022-10-05T12:22:54.127Z,99879.41
2022-10-05T12:25:27.113Z,99887.13
2022-10-05T12:27:58.875Z,99901.53
2022-10-05T12:30:34.036Z,99890.00
2022-10-05T12:33:07.403Z,99878.66
2022-10-05T12:35:47.793Z,99889.16
2022-10-05T12:38:25.222Z,99895.78
2022-10-05T12:41:00.885Z,99881.81
2022-10-05T12:43:36.272Z,99892.75
2022-10-05T12:46:11.052Z,99892.88
2022-10-05T12:48:56.418Z,99904.56
2022-10-05T12:51:35.263Z,99897.59
2022-10-05T12:54:09.305Z,99901.34
2022-10-05T12:56:44.753Z,99896.59
2022-10-05T12:59:19.889Z,99903.53
2022-10-05T13:01:53.848Z,99899.09
2022-10-05T13:04:32.665Z,99899.09
2022-10-05T13:07:35.646Z,99903.09
2022-10-05T13:10:14.251Z,99912.69
2022-10-05T13:12:48.065Z,99912.69
2022-10-05T13:15:21.910Z,99911.53
2022-10-05T13:17:59.236Z,99915.00
2022-10-05T13:20:31.278Z,99903.25
2022-10-05T13:23:04.824Z,99907.69
2022-10-05T13:25:35.588Z,99912.44
2022-10-05T13:28:16.390Z,99906.72
2022-10-05T13:30:53.257Z,99899.88
2022-10-05T13:33:28.659Z,99915.16
2022-10-05T13:36:02.098Z,99912.44
2022-10-05T13:38:41.138Z,99927.00
2022-10-05T13:41:17.359Z,99917.03
2022-10-05T13:43:53.191Z,99924.69
2022-10-05T13:46:28.727Z,99922.53
2022-10-05T13:49:06.279Z,99918.00
2022-10-05T13:51:42.482Z,99920.09
2022-10-05T13:54:16.491Z,99926.25
2022-10-05T13:56:47.358Z,99929.75
2022-10-05T13:59:21.511Z,99933.06
2022-10-05T14:01:54.387Z,99933.50
2022-10-05T14:04:26.249Z,99937.53
2022-10-05T14:06:54.707Z,99938.56
2022-10-05T14:09:31.479Z,99949.56
2022-10-05T14:12:15.694Z,99950.47
2022-10-05T14:14:47.552Z,99953.63
2022-10-05T14:17:17.571Z,99953.63
2022-10-05T14:19:51.076Z,99953.41
2022-10-05T14:22:23.369Z,99948.44
2022-10-05T14:24:54.006Z,99951.09
2022-10-05T14:27:25.977Z,99953.25
2022-10-05T14:29:58.454Z,99954.16
2022-10-05T14:32:28.703Z,99953.13
2022-10-05T14:35:05.178Z,99957.03
2022-10-05T14:37:36.503Z,99960.69
2022-10-05T14:40:24.634Z,99963.97
2022-10-05T14:42:53.057Z,99970.88
2022-10-05T14:45:23.814Z,99973.16
2022-10-05T14:47:54.407Z,99944.97
2022-10-05T14:50:29.621Z,99986.78
2022-10-05T14:53:16.786Z,99976.91
2022-10-05T14:55:58.102Z,99985.81
2022-10-05T14:58:36.411Z,99985.59
2022-10-05T15:01:11.297Z,99988.66
2022-10-05T15:03:46.979Z,99998.13
2022-10-05T15:06:27.118Z,99986.94
2022-10-05T15:09:17.014Z,100003.66
2022-10-05T15:11:50.411Z,99993.31
2022-10-05T15:14:21.850Z,100005.44
2022-10-05T15:16:52.222Z,100016.81
2022-10-05T15:19:24.231Z,100020.66
2022-10-05T15:22:18.819Z,100019.53
2022-10-05T15:24:57.948Z,100019.66
2022-10-05T15:27:31.624Z,100021.53
2022-10-05T15:30:05.753Z,100020.66
2022-10-05T15:32:44.383Z,100024.34
2022-10-05T15:35:30.291Z,100033.06
2022-10-05T15:38:03.032Z,100029.94
2022-10-05T15:40:36.036Z,100030.16
2022-10-05T15:43:05.891Z,100029.88
2022-10-05T15:45:37.788Z,100032.66
2022-10-05T15:48:08.497Z,100038.75
2022-10-05T15:50:39.367Z,100036.59
2022-10-05T15:53:13.196Z,100032.72
2022-10-05T15:55:47.012Z,100037.97
2022-10-05T15:58:31.784Z,100036.75
2022-10-05T16:01:04.993Z,100038.13
2022-10-05T16:03:43.525Z,100033.78
2022-10-05T16:06:35.281Z,100040.47
2022-10-05T16:09:15.140Z,100039.88
2022-10-05T16:11:54.799Z,100037.88
2022-10-05T16:14:41.584Z,100037.69
2022-10-05T16:17:34.231Z,100037.63
2022-10-05T16:20:17.781Z,100046.28
2022-10-05T16:22:51.028Z,100050.97
2022-10-05T16:25:23.581Z,100045.34
2022-10-05T16:28:08.630Z,100047.00
2022-10-05T16:30:48.415Z,100044.88
2022-10-05T16:33:21.253Z,100050.38
2022-10-05T16:35:56.008Z,100048.13
2022-10-05T16:38:31.691Z,100053.16
2022-10-05T16:41:04.653Z,100053.25
2022-10-05T16:43:41.904Z,100053.25
2022-10-05T16:46:15.914Z,100051.91
2022-10-05T16:48:51.247Z,100058.31
2022-10-05T16:51:26.253Z,100058.81
2022-10-05T16:54:01.363Z,100058.59
2022-10-05T16:56:35.761Z,100064.94
2022-10-05T16:59:29.654Z,100067.81
2022-10-05T17:01:58.850Z,100069.72
2022-10-05T17:04:36.848Z,100057.16
2022-10-05T17:07:16.883Z,100068.22
2022-10-05T17:10:11.905Z,100066.00
2022-10-05T17:12:48.337Z,100071.31
2022-10-05T17:15:30.808Z,100061.06
2022-10-05T17:18:16.681Z,100070.53
2022-10-05T17:20:51.979Z,100064.47
2022-10-05T17:23:40.384Z,100075.31
2022-10-05T17:26:41.109Z,100072.25
2022-10-05T17:29:18.589Z,100066.75
2022-10-05T17:32:14.053Z,100071.75
2022-10-05T17:35:18.187Z,100078.50
2022-10-05T17:38:07.069Z,100080.19
2022-10-05T17:40:37.379Z,100077.19
2022-10-05T17:43:25.756Z,100074.47
2022-10-05T17:46:00.934Z,100085.84
2022-10-05T17:49:08.529Z,100096.34
2022-10-05T17:52:17.123Z,100094.66
2022-10-05T17:55:31.124Z,100099.38
2022-10-05T17:58:02.224Z,100090.41
2022-10-05T18:00:44.109Z,100102.47
2022-10-05T18:03:37.924Z,100103.09
2022-10-05T18:06:25.014Z,100107.50
2022-10-05T18:09:17.157Z,100098.00
2022-10-05T18:11:49.861Z,100108.03
2022-10-05T18:14:23.414Z,100105.81
2022-10-05T18:16:59.674Z,100104.13
2022-10-05T18:19:32.586Z,100108.34
2022-10-05T18:22:05.340Z,100111.44
2022-10-05T18:24:57.061Z,100109.75
2022-10-05T18:28:06.757Z,100123.66
2022-10-05T18:30:43.366Z,100117.50
2022-10-05T18:33:40.419Z,100117.50
2022-10-05T18:36:34.160Z,100119.16
2022-10-05T18:39:17.151Z,100121.69
2022-10-05T18:41:54.426Z,100129.19
2022-10-05T18:44:33.734Z,100122.28
2022-10-05T18:47:08.284Z,100131.47
2022-10-05T18:49:48.719Z,100128.41
2022-10-05T18:52:26.584Z,100127.09
2022-10-05T18:55:03.229Z,100127.63
2022-10-05T18:58:03.391Z,100135.69
2022-10-05T19:00:44.003Z,100130.97
2022-10-05T19:03:16.885Z,100130.97
2022-10-05T19:05:50.075Z,100132.66
2022-10-05T19:08:29.966Z,100134.03
2022-10-05T19:11:04.411Z,100134.34
2022-10-05T19:13:40.205Z,100134.03
2022-10-05T19:16:22.764Z,100136.28
2022-10-05T19:19:08.051Z,100134.63
2022-10-05T19:21:43.316Z,100123.22
2022-10-05T19:24:28.310Z,100131.31
2022-10-05T19:27:04.201Z,100142.47
2022-10-05T19:29:42.864Z,100127.75
2022-10-05T19:32:18.810Z,100144.97
2022-10-05T19:34:59.228Z,100132.75
2022-10-05T19:37:33.283Z,100140.03
2022-10-05T19:40:09.874Z,100138.38
2022-10-05T19:42:49.190Z,100144.50
2022-10-05T19:45:21.734Z,100138.41
2022-10-05T19:48:00.696Z,100143.91
2022-10-05T19:50:30.455Z,100140.31
2022-10-05T19:53:07.504Z,100142.28
2022-10-05T19:55:41.717Z,100152.88
2022-10-05T19:58:21.483Z,100153.47
2022-10-05T20:00:56.538Z,100146.31
2022-10-05T20:03:29.310Z,100151.03
2022-10-05T20:05:58.833Z,100153.53
2022-10-05T20:08:28.583Z,100153.53
2022-10-05T20:11:15.237Z,100150.19
2022-10-05T20:13:44.953Z,100157.16
2022-10-05T20:16:51.196Z,100152.44
2022-10-05T20:19:48.026Z,100155.47
2022-10-05T20:22:29.981Z,100156.84
2022-10-05T20:25:00.279Z,100148.75
2022-10-05T20:27:48.024Z,100153.78
2022-10-05T20:30:21.621Z,100161.53
2022-10-05T20:32:50.559Z,100155.41
2022-10-05T20:35:21.701Z,100164.00
2022-10-05T20:37:50.401Z,100152.38
2022-10-05T20:40:19.846Z,100165.72
2022-10-05T20:42:50.588Z,100167.94
2022-10-05T20:45:18.778Z,100171.81
2022-10-05T20:47:47.575Z,100166.81
2022-10-05T20:50:16.347Z,100164.06
2022-10-05T20:52:44.534Z,100169.88
2022-10-05T20:55:13.536Z,100168.47
2022-10-05T20:57:42.754Z,100177.63
2022-10-05T21:00:13.760Z,100164.59
2022-10-05T21:02:42.132Z,100172.38
2022-10-05T21:05:11.053Z,100172.97
2022-10-05T21:07:40.978Z,100165.75
2022-10-05T21:10:09.949Z,100173.25
2022-10-05T21:12:38.184Z,100157.44
2022-10-05T21:15:07.504Z,100174.91
2022-10-05T21:17:38.220Z,100178.53
2022-10-05T21:20:07.487Z,100178.53
2022-10-05T21:22:36.431Z,100172.44
2022-10-05T21:25:04.907Z,100181.59
2022-10-05T21:27:33.064Z,100174.38
2022-10-05T21:30:01.419Z,100165.25
2022-10-05T21:32:32.163Z,100172.75
2022-10-05T21:35:01.707Z,100171.03
2022-10-05T21:37:30.608Z,100176.06
2022-10-05T21:39:58.850Z,100169.94
2022-10-05T21:42:27.680Z,100184.06
2022-10-05T21:44:55.778Z,100173.53
2022-10-05T21:47:24.082Z,100177.97
2022-10-05T21:49:52.209Z,100179.38
2022-10-05T21:52:21.995Z,100184.09
2022-10-05T21:54:50.323Z,100185.75
2022-10-05T21:57:18.720Z,100188.81
2022-10-05T21:59:47.115Z,100181.88
2022-10-05T22:02:15.263Z,100184.66
2022-10-05T22:04:43.401Z,100183.53
2022-10-05T22:07:18.639Z,100192.69
2022-10-05T22:09:49.492Z,100196.56
2022-10-05T22:12:18.192Z,100202.94
2022-10-05T22:14:48.910Z,100192.09
2022-10-05T22:17:20.800Z,100201.28
2022-10-05T22:19:48.976Z,100192.94
2022-10-05T22:22:19.010Z,100199.84
2022-10-05T22:24:47.100Z,100203.50
2022-10-05T22:27:16.698Z,100196.81
2022-10-05T22:29:45.084Z,100196.81
2022-10-05T22:32:13.242Z,100197.13
2022-10-05T22:34:41.419Z,100205.72
2022-10-05T22:37:13.094Z,100201.84
2022-10-05T22:39:41.991Z,100203.50
2022-10-05T22:42:11.072Z,100207.38
2022-10-05T22:44:40.690Z,100213.75
2022-10-05T22:47:08.905Z,100201.53
2022-10-05T22:49:37.107Z,100212.91
2022-10-05T22:52:05.337Z,100221.53
2022-10-05T22:54:37.195Z,100219.56
2022-10-05T22:57:05.542Z,100225.09
2022-10-05T22:59:33.960Z,100220.13
2022-10-05T23:02:03.520Z,100213.47
2022-10-05T23:04:31.766Z,100220.13
2022-10-05T23:06:59.979Z,100222.31
2022-10-05T23:09:28.065Z,100219.81
2022-10-05T23:11:56.186Z,100224.25
2022-10-05T23:14:24.814Z,100229.81
2022-10-05T23:16:55.415Z,100226.78
2022-10-05T23:19:25.195Z,100221.22
2022-10-05T23:21:53.281Z,100215.94
2022-10-05T23:24:21.553Z,100221.75
2022-10-05T23:26:49.722Z,100217.28
2022-10-05T23:29:18.036Z,100227.88
2022-10-05T23:31:46.177Z,100218.44
2022-10-05T23:34:14.376Z,100224.00
2022-10-05T23:36:43.908Z,100219.25
2022-10-05T23:39:13.743Z,100227.88
2022-10-05T23:41:44.483Z,100223.41
2022-10-05T23:44:12.696Z,100221.19
2022-10-05T23:46:41.037Z,100216.16
2022-10-05T23:49:09.327Z,100216.44
2022-10-05T23:51:37.463Z,100230.00
2022-10-05T23:54:07.153Z,100224.75
2022-10-05T23:56:35.453Z,100216.94
2022-10-05T23:59:03.698Z,100218.34
